Time;durP1;ratioP1;P1;durP2;ratioP2;P2;SDS_P1;SDS_P2;PMS_P1;PMS_P2;Temp;Humidity;BMP_temperature;BMP_pressure;BME280_temperature;BME280_humidity;BME280_pressure;Samples;Min_cycle;Max_cycle;Signal;HPM_P1;HPM_P2
2023/04/11 00:02:16;;;;;;;;;;;;;;;12.17;55.20;97714.72;4971865;28;19958;-61
2023/04/11 00:04:42;;;;;;;;;;;;;;;12.20;55.28;97719.72;4973333;28;20415;-62
2023/04/11 00:07:07;;;;;;;;;;;;;;;12.17;54.28;97725.22;4971373;28;19918;-60
2023/04/11 00:09:32;;;;;;;;;;;;;;;12.15;53.95;97722.72;4970466;28;19922;-61
2023/04/11 00:11:58;;;;;;;;;;;;;;;12.15;54.91;97713.97;4971076;28;19977;-62
2023/04/11 00:14:23;;;;;;;;;;;;;;;12.13;54.65;97713.28;4973222;28;19914;-62
2023/04/11 00:16:52;;;;;;;;;;;;;;;12.11;54.23;97714.25;4973129;28;19918;-61
2023/04/11 00:19:22;;;;;;;;;;;;;;;12.15;55.29;97714.84;4975863;28;19926;-61
2023/04/11 00:21:47;;;;;;;;;;;;;;;12.19;55.22;97707.53;4975969;28;19918;-62
2023/04/11 00:24:12;;;;;;;;;;;;;;;12.20;55.12;97699.50;4975400;28;19922;-61
2023/04/11 00:26:37;;;;;;;;;;;;;;;12.19;54.98;97697.03;4975456;28;19914;-62
2023/04/11 00:29:03;;;;;;;;;;;;;;;12.21;55.16;97685.38;4976283;28;19925;-61
2023/04/11 00:31:28;;;;;;;;;;;;;;;12.16;52.08;97682.31;4974811;28;19945;-62
2023/04/11 00:33:53;;;;;;;;;;;;;;;12.21;53.55;97684.56;4976152;28;19957;-59
2023/04/11 00:36:18;;;;;;;;;;;;;;;12.21;54.34;97679.31;4975947;28;20004;-63
2023/04/11 00:38:45;;;;;;;;;;;;;;;12.19;53.41;97665.47;4975992;28;19942;-62
2023/04/11 00:41:10;;;;;;;;;;;;;;;12.20;54.46;97656.63;4974021;28;19918;-62
2023/04/11 00:43:35;;;;;;;;;;;;;;;12.23;55.61;97643.22;4975587;28;19918;-61
2023/04/11 00:46:00;;;;;;;;;;;;;;;12.26;55.52;97642.97;4976173;28;19914;-61
2023/04/11 00:48:27;;;;;;;;;;;;;;;12.26;54.70;97658.75;4974195;28;20348;-61
2023/04/11 00:50:52;;;;;;;;;;;;;;;12.25;54.94;97641.28;4974855;28;19914;-62
2023/04/11 00:53:17;;;;;;;;;;;;;;;12.24;54.66;97632.56;4971131;28;19925;-62
2023/04/11 00:55:42;;;;;;;;;;;;;;;12.24;55.31;97632.56;4976017;28;20005;-61
2023/04/11 00:58:08;;;;;;;;;;;;;;;12.22;54.85;97641.56;4975818;28;19960;-61
2023/04/11 01:00:34;;;;;;;;;;;;;;;12.21;55.94;97647.75;4975887;28;19945;-60
2023/04/11 01:02:59;;;;;;;;;;;;;;;12.21;56.06;97648.59;4974214;28;19918;-61
2023/04/11 01:05:25;;;;;;;;;;;;;;;12.22;55.44;97645.00;4974909;28;19918;-62
2023/04/11 01:07:50;;;;;;;;;;;;;;;12.20;55.42;97640.84;4975498;28;19914;-62
2023/04/11 01:10:15;;;;;;;;;;;;;;;12.15;54.95;97637.75;4975834;28;19936;-61
2023/04/11 01:12:40;;;;;;;;;;;;;;;12.10;54.78;97652.13;4974240;28;20000;-62
2023/04/11 01:15:06;;;;;;;;;;;;;;;12.07;54.57;97647.09;4973135;28;20029;-62
2023/04/11 01:17:31;;;;;;;;;;;;;;;11.99;54.54;97649.56;4974786;28;19918;-62
2023/04/11 01:19:57;;;;;;;;;;;;;;;12.02;56.08;97645.84;4974367;28;20445;-62
2023/04/11 01:22:22;;;;;;;;;;;;;;;12.05;55.70;97637.72;4974896;28;19930;-61
2023/04/11 01:24:47;;;;;;;;;;;;;;;12.08;56.60;97619.06;4957073;28;19948;-62
2023/04/11 01:27:13;;;;;;;;;;;;;;;12.05;55.21;97628.03;4973500;28;19965;-62
2023/04/11 01:29:38;;;;;;;;;;;;;;;11.93;53.72;97633.47;4974878;28;20017;-62
2023/04/11 01:32:03;;;;;;;;;;;;;;;11.97;56.61;97651.47;4974590;28;19941;-62
2023/04/11 01:34:28;;;;;;;;;;;;;;;11.98;56.79;97647.91;4973953;28;19918;-60
2023/04/11 01:36:54;;;;;;;;;;;;;;;11.92;56.29;97647.56;4974308;28;20276;-61
2023/04/11 01:39:19;;;;;;;;;;;;;;;11.92;58.32;97652.81;4975316;28;19977;-62
2023/04/11 01:41:44;;;;;;;;;;;;;;;11.83;57.81;97641.25;4973875;28;19918;-62
2023/04/11 01:44:09;;;;;;;;;;;;;;;11.83;58.63;97639.44;4975093;28;20060;-62
2023/04/11 01:46:35;;;;;;;;;;;;;;;11.85;59.12;97642.00;4966851;28;19965;-62
2023/04/11 01:49:00;;;;;;;;;;;;;;;11.86;59.43;97641.03;4965920;28;20009;-62
2023/04/11 01:51:26;;;;;;;;;;;;;;;11.88;60.84;97636.47;4974262;28;20046;-62
2023/04/11 01:53:51;;;;;;;;;;;;;;;11.90;61.32;97629.28;4974701;28;19914;-61
2023/04/11 01:56:16;;;;;;;;;;;;;;;11.88;62.01;97636.47;4973641;28;19918;-62
2023/04/11 01:58:41;;;;;;;;;;;;;;;11.90;62.42;97628.47;4972172;28;19941;-62
2023/04/11 02:01:06;;;;;;;;;;;;;;;11.91;62.79;97638.84;4974063;28;19922;-62
2023/04/11 02:03:32;;;;;;;;;;;;;;;11.93;63.09;97625.56;4973389;28;20001;-62
2023/04/11 02:05:57;;;;;;;;;;;;;;;11.92;63.06;97622.13;4974589;28;20038;-62
2023/04/11 02:08:22;;;;;;;;;;;;;;;11.92;63.25;97616.88;4973385;28;19981;-62
2023/04/11 02:10:47;;;;;;;;;;;;;;;11.92;63.47;97627.38;4972977;28;19918;-61
2023/04/11 02:13:13;;;;;;;;;;;;;;;11.92;63.86;97622.13;4973552;28;19926;-62
2023/04/11 02:15:38;;;;;;;;;;;;;;;11.92;64.29;97637.06;4973403;28;19925;-63
2023/04/11 02:18:03;;;;;;;;;;;;;;;11.87;64.65;97630.41;4973415;28;19918;-62
2023/04/11 02:20:28;;;;;;;;;;;;;;;11.88;64.42;97639.94;4973899;28;20000;-62
2023/04/11 02:22:54;;;;;;;;;;;;;;;11.90;63.68;97631.91;4973424;28;19921;-62
2023/04/11 02:25:19;;;;;;;;;;;;;;;11.87;63.91;97621.66;4974424;28;20006;-62
2023/04/11 02:27:44;;;;;;;;;;;;;;;11.82;64.23;97615.94;4973076;28;19977;-62
2023/04/11 02:30:09;;;;;;;;;;;;;;;11.81;64.88;97599.34;4972863;28;19925;-61
2023/04/11 02:32:36;;;;;;;;;;;;;;;11.82;65.23;97594.91;4973303;28;19922;-63
2023/04/11 02:35:01;;;;;;;;;;;;;;;11.81;65.40;97595.88;4972971;28;19958;-61
2023/04/11 02:37:27;;;;;;;;;;;;;;;11.80;65.28;97604.69;4974157;28;19977;-62
2023/04/11 02:39:52;;;;;;;;;;;;;;;11.78;65.91;97604.00;4972487;28;19918;-63
2023/04/11 02:42:18;;;;;;;;;;;;;;;11.76;66.17;97600.66;4972622;28;20004;-62
2023/04/11 02:44:43;;;;;;;;;;;;;;;11.77;65.88;97602.34;4974033;28;19918;-62
2023/04/11 02:47:08;;;;;;;;;;;;;;;11.75;66.81;97597.22;4973912;28;19922;-62
2023/04/11 02:49:33;;;;;;;;;;;;;;;11.77;66.78;97592.69;4973139;28;20384;-62
2023/04/11 02:51:58;;;;;;;;;;;;;;;11.77;67.00;97589.22;4972650;28;20368;-62
2023/04/11 02:54:24;;;;;;;;;;;;;;;11.75;66.95;97591.13;4973874;28;20068;-62
2023/04/11 02:56:49;;;;;;;;;;;;;;;11.75;66.68;97584.06;4973015;28;19918;-62
2023/04/11 02:59:15;;;;;;;;;;;;;;;11.76;67.12;97584.91;4972606;28;19914;-62
2023/04/11 03:01:40;;;;;;;;;;;;;;;11.75;67.62;97578.00;4971652;28;19933;-63
2023/04/11 03:04:06;;;;;;;;;;;;;;;11.75;67.49;97573.56;4973526;28;20014;-63
2023/04/11 03:06:32;;;;;;;;;;;;;;;11.76;67.52;97553.38;4973582;28;19915;-61
2023/04/11 03:08:57;;;;;;;;;;;;;;;11.76;66.90;97561.25;4973004;28;19918;-62
2023/04/11 03:11:22;;;;;;;;;;;;;;;11.78;67.01;97560.19;4972745;28;19933;-62
2023/04/11 03:13:47;;;;;;;;;;;;;;;11.76;67.72;97563.88;4971611;28;19918;-62
2023/04/11 03:16:13;;;;;;;;;;;;;;;11.73;67.45;97569.41;4973525;28;19926;-62
2023/04/11 03:18:38;;;;;;;;;;;;;;;11.75;68.37;97562.22;4971624;28;19915;-63
2023/04/11 03:21:06;;;;;;;;;;;;;;;11.76;68.22;97569.16;4972079;28;20366;-63
2023/04/11 03:23:31;;;;;;;;;;;;;;;11.73;68.30;97577.28;4971349;28;20273;-63
2023/04/11 03:25:57;;;;;;;;;;;;;;;11.69;68.12;97570.63;4973315;28;19939;-63
2023/04/11 03:28:22;;;;;;;;;;;;;;;11.72;68.27;97575.63;4971596;28;19926;-63
2023/04/11 03:30:49;;;;;;;;;;;;;;;11.67;68.25;97575.19;4973366;28;20094;-63
2023/04/11 03:33:14;;;;;;;;;;;;;;;11.64;68.21;97582.34;4971713;28;19929;-63
2023/04/11 03:35:39;;;;;;;;;;;;;;;11.55;69.34;97590.97;4969925;28;20382;-62
2023/04/11 03:38:05;;;;;;;;;;;;;;;11.62;68.50;97589.50;4973135;28;20332;-63
2023/04/11 03:40:30;;;;;;;;;;;;;;;11.63;68.55;97587.69;4973317;28;19915;-62
2023/04/11 03:42:55;;;;;;;;;;;;;;;11.60;68.24;97583.56;4971236;28;19918;-62
2023/04/11 03:45:20;;;;;;;;;;;;;;;11.57;68.22;97581.19;4966128;28;19969;-62
2023/04/11 03:47:45;;;;;;;;;;;;;;;11.61;69.00;97581.75;4973368;28;19918;-62
2023/04/11 03:50:11;;;;;;;;;;;;;;;11.65;68.67;97584.00;4973642;28;19921;-62
2023/04/11 03:52:36;;;;;;;;;;;;;;;11.64;68.68;97589.41;4975055;28;19925;-63
2023/04/11 03:55:01;;;;;;;;;;;;;;;11.38;69.18;97599.41;4975762;28;19918;-63
2023/04/11 03:57:26;;;;;;;;;;;;;;;11.27;70.16;97594.19;4976957;28;19921;-62
2023/04/11 03:59:52;;;;;;;;;;;;;;;11.09;71.73;97602.59;4977145;28;19914;-62
2023/04/11 04:02:17;;;;;;;;;;;;;;;11.06;71.99;97597.59;4974939;28;19918;-63
2023/04/11 04:04:53;;;;;;;;;;;;;;;11.09;72.34;97592.09;4976115;28;19926;-63
2023/04/11 04:07:20;;;;;;;;;;;;;;;11.03;71.94;97587.34;4970278;28;19925;-63
2023/04/11 04:09:46;;;;;;;;;;;;;;;11.03;71.78;97583.88;4976800;28;19914;-63
2023/04/11 04:12:11;;;;;;;;;;;;;;;10.96;72.03;97583.53;4974727;28;20300;-62
2023/04/11 04:14:36;;;;;;;;;;;;;;;10.89;72.50;97579.72;4972979;28;20295;-62
2023/04/11 04:17:01;;;;;;;;;;;;;;;10.96;72.56;97582.72;4974494;28;20033;-62
2023/04/11 04:19:26;;;;;;;;;;;;;;;11.04;72.77;97583.75;4976672;28;19914;-62
2023/04/11 04:21:52;;;;;;;;;;;;;;;11.02;73.14;97596.16;4976600;28;19921;-62
2023/04/11 04:24:17;;;;;;;;;;;;;;;11.01;72.74;97594.50;4976063;28;19914;-62
2023/04/11 04:26:44;;;;;;;;;;;;;;;11.02;73.18;97580.44;4969355;28;20427;-61
2023/04/11 04:29:11;;;;;;;;;;;;;;;11.05;72.94;97576.72;4974747;28;19918;-61
2023/04/11 04:31:37;;;;;;;;;;;;;;;11.07;73.03;97567.75;4975749;28;19929;-62
2023/04/11 04:34:07;;;;;;;;;;;;;;;11.13;72.85;97562.00;4975718;28;19922;-62
2023/04/11 04:36:32;;;;;;;;;;;;;;;11.15;73.17;97548.78;4974240;28;20374;-62
2023/04/11 04:39:00;;;;;;;;;;;;;;;11.10;73.32;97559.63;4975536;28;19957;-62
2023/04/11 04:41:35;;;;;;;;;;;;;;;11.16;73.92;97571.44;4976243;28;19936;-62
2023/04/11 04:44:03;;;;;;;;;;;;;;;11.20;73.85;97559.72;4975048;28;19918;-62
2023/04/11 04:46:35;;;;;;;;;;;;;;;11.21;73.95;97581.56;4976043;28;20289;-60
2023/04/11 04:49:00;;;;;;;;;;;;;;;11.14;74.17;97594.34;4976495;28;19971;-62
2023/04/11 04:51:28;;;;;;;;;;;;;;;11.13;74.48;97601.38;4976262;28;19922;-62
2023/04/11 04:53:56;;;;;;;;;;;;;;;11.00;75.70;97607.75;4974535;28;19922;-62
2023/04/11 04:56:21;;;;;;;;;;;;;;;10.99;75.75;97617.41;4968408;28;19925;-62
2023/04/11 04:58:46;;;;;;;;;;;;;;;11.00;75.81;97621.69;4975807;28;19915;-62
2023/04/11 05:01:11;;;;;;;;;;;;;;;10.92;76.26;97622.31;4975263;28;19918;-62
2023/04/11 05:03:37;;;;;;;;;;;;;;;10.99;76.00;97603.47;4975133;28;20450;-62
2023/04/11 05:06:02;;;;;;;;;;;;;;;11.02;75.21;97604.03;4973103;28;20376;-62
2023/04/11 05:08:27;;;;;;;;;;;;;;;10.88;76.81;97599.88;4973408;28;19922;-61
2023/04/11 05:10:53;;;;;;;;;;;;;;;10.79;77.24;97605.84;4975140;28;20265;-62
2023/04/11 05:13:18;;;;;;;;;;;;;;;10.76;77.35;97615.75;4974522;28;19922;-61
2023/04/11 05:15:47;;;;;;;;;;;;;;;10.68;78.00;97614.56;4973607;28;19929;-61
2023/04/11 05:18:12;;;;;;;;;;;;;;;10.65;78.13;97635.78;4968977;28;20392;-62
2023/04/11 05:20:38;;;;;;;;;;;;;;;10.57;78.79;97637.34;4974960;28;19918;-62
2023/04/11 05:23:03;;;;;;;;;;;;;;;10.42;76.81;97668.19;4967760;28;19937;-61
2023/04/11 05:25:28;;;;;;;;;;;;;;;10.23;75.05;97669.56;4980523;28;19915;-61
2023/04/11 05:27:54;;;;;;;;;;;;;;;9.89;75.39;97679.13;4975009;28;19925;-61
2023/04/11 05:30:19;;;;;;;;;;;;;;;9.72;75.76;97718.81;4970446;28;19918;-61
2023/04/11 05:32:45;;;;;;;;;;;;;;;9.41;76.02;97688.78;4970992;28;19930;-62
2023/04/11 05:35:10;;;;;;;;;;;;;;;9.31;76.62;97703.47;4955855;28;19914;-62
2023/04/11 05:37:36;;;;;;;;;;;;;;;9.18;76.33;97703.50;4969682;28;20328;-62
2023/04/11 05:40:01;;;;;;;;;;;;;;;9.09;76.57;97710.22;4973230;28;19918;-64
2023/04/11 05:42:26;;;;;;;;;;;;;;;9.02;76.05;97717.66;4972968;28;20017;-62
2023/04/11 05:44:52;;;;;;;;;;;;;;;8.86;76.31;97718.84;4974656;28;19962;-62
2023/04/11 05:47:17;;;;;;;;;;;;;;;8.84;75.85;97721.53;4970008;28;19945;-62
2023/04/11 05:49:42;;;;;;;;;;;;;;;8.79;77.01;97710.56;4968983;28;19928;-62
2023/04/11 05:52:07;;;;;;;;;;;;;;;8.85;76.88;97711.94;4973281;28;19922;-62
2023/04/11 05:54:33;;;;;;;;;;;;;;;8.88;76.99;97722.16;4974356;28;20008;-62
2023/04/11 05:56:58;;;;;;;;;;;;;;;8.87;76.63;97717.88;4972699;28;20013;-62
2023/04/11 05:59:23;;;;;;;;;;;;;;;8.92;76.51;97718.41;4972774;28;20016;-62
2023/04/11 06:01:49;;;;;;;;;;;;;;;8.91;76.71;97719.34;4971400;28;20012;-62
2023/04/11 06:04:15;;;;;;;;;;;;;;;8.93;75.95;97720.06;4975106;28;19915;-62
2023/04/11 06:06:40;;;;;;;;;;;;;;;8.95;74.92;97723.44;4974845;28;19921;-61
2023/04/11 06:09:07;;;;;;;;;;;;;;;8.96;75.11;97725.94;4973695;28;19969;-61
2023/04/11 06:11:33;;;;;;;;;;;;;;;9.00;75.69;97729.16;4972093;28;20392;-61
2023/04/11 06:13:58;;;;;;;;;;;;;;;9.06;74.74;97726.13;4972490;28;19918;-62
2023/04/11 08:36:00;;;;;;;;;;;;;;;10.45;63.11;97817.41;5915638;23;20202;-63
2023/04/11 08:38:25;;;;;;;;;;;;;;;10.42;63.53;97823.69;4974652;28;19953;-62
2023/04/11 08:40:50;;;;;;;;;;;;;;;10.47;61.73;97830.41;4969918;28;19918;-63
2023/04/11 08:43:16;;;;;;;;;;;;;;;10.39;62.34;97815.22;4973893;28;19914;-62
2023/04/11 08:45:41;;;;;;;;;;;;;;;10.36;62.15;97808.44;4977687;28;19914;-62
2023/04/11 08:48:06;;;;;;;;;;;;;;;10.32;62.29;97817.47;4978110;28;19922;-65
2023/04/11 08:50:35;;;;;;;;;;;;;;;10.34;61.39;97814.75;4969201;28;19921;-64
2023/04/11 08:53:01;;;;;;;;;;;;;;;10.29;60.77;97822.09;4972366;28;19915;-63
2023/04/11 08:55:26;;;;;;;;;;;;;;;10.41;61.57;97821.22;4974928;28;20085;-63
2023/04/11 08:57:52;;;;;;;;;;;;;;;10.45;59.45;97807.75;4975776;28;20438;-64
2023/04/11 09:00:22;;;;;;;;;;;;;;;10.61;59.09;97796.13;4976832;28;20347;-65
2023/04/11 09:02:54;;;;;;;;;;;;;;;10.87;58.77;97812.50;4973808;28;19914;-63
2023/04/11 09:05:25;;;;;;;;;;;;;;;10.99;57.21;97808.97;4974552;28;19919;-62
2023/04/11 09:07:50;;;;;;;;;;;;;;;10.99;58.10;97805.50;4975882;28;20335;-63
2023/04/11 09:10:19;;;;;;;;;;;;;;;11.08;58.50;97800.41;4975895;28;20387;-64
2023/04/11 09:12:44;;;;;;;;;;;;;;;11.08;57.57;97805.63;4975798;28;19969;-62
2023/04/11 09:15:16;;;;;;;;;;;;;;;11.16;58.24;97813.75;4975794;28;20339;-62
2023/04/11 09:17:41;;;;;;;;;;;;;;;11.29;58.74;97800.53;4975430;28;19918;-62
2023/04/11 09:20:19;;;;;;;;;;;;;;;11.35;58.30;97810.50;4967884;28;19970;-63
2023/04/11 09:22:46;;;;;;;;;;;;;;;11.48;57.55;97797.28;4955291;28;20287;-64
2023/04/11 09:25:11;;;;;;;;;;;;;;;11.52;57.62;97797.88;4974233;28;19914;-66
2023/04/11 09:27:36;;;;;;;;;;;;;;;11.64;57.65;97787.22;4974147;28;19921;-64
2023/04/11 09:30:02;;;;;;;;;;;;;;;12.07;56.97;97778.53;4975431;28;19920;-64
2023/04/11 09:32:32;;;;;;;;;;;;;;;12.23;56.91;97787.81;4973875;28;20284;-63
2023/04/11 09:35:14;;;;;;;;;;;;;;;12.16;56.74;97792.75;4974761;28;19929;-64
2023/04/11 09:37:46;;;;;;;;;;;;;;;12.07;55.94;97799.56;4950266;28;19922;-64
2023/04/11 09:40:11;;;;;;;;;;;;;;;12.01;55.92;97799.22;4975378;28;20299;-63
2023/04/11 09:42:37;;;;;;;;;;;;;;;11.93;58.36;97815.63;4975205;28;19918;-63
2023/04/11 09:45:03;;;;;;;;;;;;;;;11.82;58.77;97813.81;4973876;28;19970;-64
2023/04/11 09:47:31;;;;;;;;;;;;;;;11.77;59.47;97818.63;4973618;28;19918;-64
2023/04/11 09:49:57;;;;;;;;;;;;;;;11.48;59.11;97813.03;4973393;28;19961;-65
2023/04/11 09:52:22;;;;;;;;;;;;;;;11.20;59.34;97808.25;4973853;28;19914;-66
2023/04/11 09:54:48;;;;;;;;;;;;;;;11.11;58.99;97815.03;4973962;28;20304;-64
2023/04/11 09:57:13;;;;;;;;;;;;;;;11.45;59.52;97812.44;4973530;28;20283;-64
2023/04/11 09:59:39;;;;;;;;;;;;;;;11.70;59.01;97813.97;4973717;28;20418;-65
2023/04/11 10:02:04;;;;;;;;;;;;;;;11.73;59.74;97806.66;4973692;28;20375;-65
2023/04/11 10:04:29;;;;;;;;;;;;;;;11.91;57.52;97788.66;4973734;28;19914;-65
2023/04/11 10:07:00;;;;;;;;;;;;;;;12.08;57.92;97790.75;4974535;28;19921;-65
2023/04/11 10:09:26;;;;;;;;;;;;;;;12.29;57.35;97795.22;4974694;28;19921;-62
2023/04/11 10:11:51;;;;;;;;;;;;;;;12.50;57.72;97785.53;4973430;28;20291;-63
2023/04/11 10:14:35;;;;;;;;;;;;;;;12.67;56.36;97780.69;4973504;28;20328;-63
2023/04/11 10:17:11;;;;;;;;;;;;;;;12.97;56.64;97788.63;4974340;28;19961;-64
2023/04/11 10:19:36;;;;;;;;;;;;;;;13.10;51.47;97795.47;4971745;28;19918;-64
2023/04/11 10:22:02;;;;;;;;;;;;;;;13.31;50.02;97791.00;4974313;28;20375;-64
2023/04/11 10:24:27;;;;;;;;;;;;;;;13.57;49.04;97809.00;4974782;28;20368;-63
2023/04/11 10:26:53;;;;;;;;;;;;;;;13.74;47.53;97795.19;4974246;28;20288;-63
2023/04/11 10:29:39;;;;;;;;;;;;;;;13.91;46.57;97781.34;4973185;28;19914;-64
2023/04/11 10:32:11;;;;;;;;;;;;;;;14.20;46.07;97796.38;4974300;28;20375;-62
2023/04/11 10:34:37;;;;;;;;;;;;;;;14.35;46.14;97796.78;4973110;28;19918;-65
2023/04/11 10:37:03;;;;;;;;;;;;;;;14.01;45.94;97789.28;4972788;28;20006;-65
2023/04/11 10:39:46;;;;;;;;;;;;;;;14.37;44.16;97802.78;4973147;28;19953;-64
2023/04/11 10:42:33;;;;;;;;;;;;;;;14.72;43.27;97800.41;4966874;28;19919;-64
2023/04/11 10:45:17;;;;;;;;;;;;;;;15.02;40.53;97795.91;4974117;28;19941;-63
2023/04/11 10:48:02;;;;;;;;;;;;;;;14.73;41.53;97819.75;4973930;28;19914;-63
2023/04/11 10:50:27;;;;;;;;;;;;;;;14.40;37.71;97811.25;4973654;28;19914;-64
2023/04/11 10:52:56;;;;;;;;;;;;;;;14.35;34.41;97800.28;4973902;28;19915;-63
2023/04/11 10:55:21;;;;;;;;;;;;;;;14.35;36.17;97800.28;4972715;28;19918;-62
2023/04/11 10:58:06;;;;;;;;;;;;;;;14.60;36.04;97798.91;4956094;28;19914;-63
2023/04/11 11:00:50;;;;;;;;;;;;;;;14.75;36.14;97809.03;4972443;28;20032;-63
2023/04/11 11:03:16;;;;;;;;;;;;;;;15.36;36.16;97785.66;4973715;28;19946;-63
2023/04/11 11:05:41;;;;;;;;;;;;;;;15.68;36.38;97792.34;4972383;28;19972;-63
2023/04/11 11:08:06;;;;;;;;;;;;;;;16.00;34.54;97794.53;4973538;28;19922;-63
2023/04/11 11:10:38;;;;;;;;;;;;;;;16.12;34.19;97792.50;4973847;28;20013;-63
2023/04/11 11:13:04;;;;;;;;;;;;;;;16.45;34.80;97790.16;4967197;28;19925;-63
2023/04/11 11:15:30;;;;;;;;;;;;;;;16.50;34.58;97790.53;4971115;28;19922;-63
2023/04/11 11:17:55;;;;;;;;;;;;;;;16.28;35.50;97811.19;4972239;28;19914;-64
2023/04/11 11:20:20;;;;;;;;;;;;;;;16.24;34.98;97788.66;4973568;28;20017;-65
2023/04/11 11:23:03;;;;;;;;;;;;;;;16.38;35.02;97795.25;4972681;28;19918;-63
2023/04/11 11:25:28;;;;;;;;;;;;;;;16.17;33.67;97779.63;4972335;28;19914;-65
2023/04/11 11:27:57;;;;;;;;;;;;;;;15.93;34.01;97811.13;4973633;28;19914;-64
2023/04/11 11:30:22;;;;;;;;;;;;;;;15.18;34.97;97811.19;4972835;28;19921;-64
2023/04/11 11:32:48;;;;;;;;;;;;;;;14.72;36.10;97812.78;4973770;28;19914;-63
2023/04/11 11:35:13;;;;;;;;;;;;;;;14.27;37.22;97815.94;4973502;28;19925;-63
2023/04/11 11:37:38;;;;;;;;;;;;;;;14.08;37.75;97805.41;4973196;28;19922;-63
2023/04/11 11:40:11;;;;;;;;;;;;;;;13.82;38.17;97800.63;4972100;28;19945;-64
2023/04/11 11:42:36;;;;;;;;;;;;;;;14.17;37.40;97808.03;4973308;28;19921;-62
2023/04/11 11:45:18;;;;;;;;;;;;;;;14.11;35.56;97818.28;4972032;28;19914;-64
2023/04/11 11:47:43;;;;;;;;;;;;;;;13.79;36.61;97811.44;4971585;28;19973;-63
2023/04/11 11:50:08;;;;;;;;;;;;;;;13.71;36.80;97808.63;4962049;28;19922;-63
2023/04/11 11:52:41;;;;;;;;;;;;;;;13.53;38.01;97817.19;4974661;28;19914;-63
2023/04/11 11:55:08;;;;;;;;;;;;;;;13.53;38.32;97827.72;4966725;28;19977;-64
2023/04/11 11:57:34;;;;;;;;;;;;;;;13.99;39.28;97836.88;4972841;28;20587;-62
2023/04/11 12:00:00;;;;;;;;;;;;;;;14.42;39.10;97846.25;4971737;28;20037;-63
2023/04/11 12:02:26;;;;;;;;;;;;;;;14.54;38.40;97843.50;4967935;28;20292;-63
2023/04/11 12:04:58;;;;;;;;;;;;;;;14.65;37.00;97864.47;4963477;28;19918;-63
2023/04/11 12:07:23;;;;;;;;;;;;;;;15.67;50.17;97840.91;4963260;28;19931;-60
2023/04/11 12:09:48;;;;;;;;;;;;;;;16.56;35.67;97835.78;4965726;28;19945;-64
2023/04/11 12:12:14;;;;;;;;;;;;;;;16.54;33.47;97847.50;4971448;28;19918;-63
2023/04/11 12:14:40;;;;;;;;;;;;;;;16.43;34.27;97837.13;4976624;28;19929;-62
2023/04/11 12:17:07;;;;;;;;;;;;;;;16.66;36.09;97841.00;4976635;28;20300;-62
2023/04/11 12:19:32;;;;;;;;;;;;;;;16.25;33.41;97832.66;4968766;28;19917;-62
2023/04/11 12:21:57;;;;;;;;;;;;;;;16.00;34.51;97838.66;4973468;28;20049;-62
2023/04/11 12:24:22;;;;;;;;;;;;;;;15.52;35.08;97884.63;4976584;28;19964;-62
2023/04/11 12:26:48;;;;;;;;;;;;;;;14.92;36.00;97847.91;4975479;28;19918;-61
2023/04/11 12:29:13;;;;;;;;;;;;;;;15.10;39.72;97840.09;4976445;28;19921;-61
2023/04/11 12:31:38;;;;;;;;;;;;;;;15.13;39.04;97855.66;4976671;28;19914;-61
2023/04/11 12:34:04;;;;;;;;;;;;;;;15.02;36.75;97837.34;4976962;28;19921;-62
2023/04/11 12:36:29;;;;;;;;;;;;;;;14.89;37.38;97842.91;4976439;28;20408;-63
2023/04/11 12:38:54;;;;;;;;;;;;;;;14.46;37.10;97854.72;4976297;28;20419;-63
2023/04/11 12:41:20;;;;;;;;;;;;;;;14.23;38.25;97856.75;4976482;28;19930;-63
2023/04/11 12:43:45;;;;;;;;;;;;;;;13.96;39.21;97860.88;4976307;28;19914;-63
2023/04/11 12:46:10;;;;;;;;;;;;;;;14.86;37.76;97854.59;4976458;28;19914;-63
2023/04/11 12:48:36;;;;;;;;;;;;;;;15.92;36.48;97851.78;4976087;28;20398;-63
2023/04/11 12:51:01;;;;;;;;;;;;;;;16.81;37.96;97850.06;4976217;28;19985;-63
2023/04/11 12:53:26;;;;;;;;;;;;;;;17.50;36.86;97848.41;4976146;28;19949;-63
2023/04/11 12:55:51;;;;;;;;;;;;;;;17.98;36.29;97856.78;4976108;28;19925;-64
2023/04/11 12:58:17;;;;;;;;;;;;;;;17.96;36.00;97848.13;4975863;28;19914;-63
2023/04/11 13:00:42;;;;;;;;;;;;;;;18.52;35.97;97865.22;4975996;28;19918;-63
2023/04/11 13:03:07;;;;;;;;;;;;;;;19.34;33.81;97867.88;4975102;28;20335;-65
2023/04/11 13:05:33;;;;;;;;;;;;;;;19.55;31.21;97865.53;4975007;28;20281;-62
2023/04/11 13:07:58;;;;;;;;;;;;;;;19.89;30.59;97865.28;4975798;28;20335;-64
2023/04/11 13:10:23;;;;;;;;;;;;;;;20.02;30.23;97853.25;4975972;28;19925;-62
2023/04/11 13:12:52;;;;;;;;;;;;;;;19.60;30.32;97857.84;4972389;28;19918;-63
2023/04/11 13:15:17;;;;;;;;;;;;;;;20.27;30.20;97853.97;4967919;28;19922;-63
2023/04/11 13:17:42;;;;;;;;;;;;;;;20.74;29.58;97863.69;4973050;28;19925;-65
2023/04/11 13:20:08;;;;;;;;;;;;;;;20.93;28.91;97855.22;4970019;28;19918;-64
2023/04/11 13:22:34;;;;;;;;;;;;;;;21.12;28.35;97853.03;4973632;28;20403;-64
2023/04/11 13:25:00;;;;;;;;;;;;;;;21.38;28.61;97864.16;4970432;28;19965;-65
2023/04/11 13:27:25;;;;;;;;;;;;;;;21.72;28.17;97833.47;4971719;28;19914;-64
2023/04/11 13:29:50;;;;;;;;;;;;;;;22.16;27.37;97843.25;4969072;28;19961;-64
2023/04/11 13:32:15;;;;;;;;;;;;;;;22.16;26.42;97840.59;4970729;28;19953;-64
2023/04/11 13:34:41;;;;;;;;;;;;;;;22.20;26.26;97864.09;4974166;28;19957;-63
2023/04/11 13:37:06;;;;;;;;;;;;;;;;;;4964420;28;19964;-64
2023/04/11 13:39:31;;;;;;;;;;;;;;;20.11;28.78;97850.38;4975079;28;19989;-65
2023/04/11 13:41:56;;;;;;;;;;;;;;;19.65;30.06;97866.22;4971953;28;19922;-65
2023/04/11 13:44:22;;;;;;;;;;;;;;;18.72;31.02;97855.16;4975045;28;20265;-64
2023/04/11 13:46:47;;;;;;;;;;;;;;;19.13;31.51;97848.00;4974702;28;19914;-64
2023/04/11 13:49:12;;;;;;;;;;;;;;;17.99;33.08;97839.84;4961474;28;20001;-63
2023/04/11 13:51:38;;;;;;;;;;;;;;;17.52;34.23;97858.84;4973122;28;20013;-65
2023/04/11 13:54:03;;;;;;;;;;;;;;;16.90;34.83;97858.09;4973985;28;20001;-65
2023/04/11 13:56:29;;;;;;;;;;;;;;;16.27;36.59;97873.03;4974949;28;20376;-63
2023/04/11 13:58:54;;;;;;;;;;;;;;;16.02;37.10;97865.81;4974713;28;19981;-64
2023/04/11 14:01:20;;;;;;;;;;;;;;;15.74;38.03;97865.78;4974922;28;19977;-63
2023/04/11 14:03:45;;;;;;;;;;;;;;;15.48;38.75;97875.31;4973593;28;19914;-61
2023/04/11 14:06:10;;;;;;;;;;;;;;;15.16;40.08;97866.78;4975056;28;19921;-62
2023/04/11 14:08:36;;;;;;;;;;;;;;;14.99;40.40;97872.78;4974644;28;19914;-63
2023/04/11 14:11:01;;;;;;;;;;;;;;;14.57;41.99;97881.00;4974696;28;20407;-63
2023/04/11 14:13:26;;;;;;;;;;;;;;;14.17;42.99;97888.94;4974683;28;20391;-62
2023/04/11 14:15:52;;;;;;;;;;;;;;;13.80;45.11;97893.97;4974572;28;20323;-62
2023/04/11 14:18:17;;;;;;;;;;;;;;;13.40;47.98;97924.56;4974496;28;19914;-64
2023/04/11 14:20:42;;;;;;;;;;;;;;;13.06;50.44;97913.38;4974632;28;19914;-63
2023/04/11 14:23:09;;;;;;;;;;;;;;;12.70;46.52;97927.78;4974539;28;19914;-64
2023/04/11 14:25:35;;;;;;;;;;;;;;;12.37;46.81;97928.69;4974451;28;20402;-63
2023/04/11 14:28:00;;;;;;;;;;;;;;;12.49;48.45;97919.81;4974211;28;19918;-63
2023/04/11 14:30:26;;;;;;;;;;;;;;;12.61;48.98;97910.94;4974809;28;19920;-63
2023/04/11 14:32:51;;;;;;;;;;;;;;;15.39;42.38;97912.22;4972583;28;20376;-65
2023/04/11 14:35:16;;;;;;;;;;;;;;;17.03;41.07;97892.97;4969072;28;19925;-63
2023/04/11 14:37:43;;;;;;;;;;;;;;;18.15;37.00;97887.69;4974083;28;19918;-65
2023/04/11 14:40:09;;;;;;;;;;;;;;;19.21;35.43;97890.50;4974266;28;20380;-64
2023/04/11 14:42:35;;;;;;;;;;;;;;;20.11;34.39;97885.00;4972928;28;19941;-64
2023/04/11 14:45:00;;;;;;;;;;;;;;;20.83;33.04;97878.59;4974199;28;20303;-64
2023/04/11 14:47:25;;;;;;;;;;;;;;;21.48;31.64;97875.41;4973859;28;20371;-63
2023/04/11 14:49:51;;;;;;;;;;;;;;;22.24;30.63;97872.56;4974017;28;19948;-65
2023/04/11 14:52:16;;;;;;;;;;;;;;;22.80;29.55;97875.41;4974047;28;19961;-65
2023/04/11 14:54:41;;;;;;;;;;;;;;;23.29;27.97;97871.94;4973964;28;19926;-65
2023/04/11 14:57:06;;;;;;;;;;;;;;;23.72;26.95;97873.75;4973528;28;20430;-62
2023/04/11 14:59:32;;;;;;;;;;;;;;;21.47;30.02;97868.41;4973776;28;20377;-61
2023/04/11 15:01:57;;;;;;;;;;;;;;;20.25;32.64;97874.63;4973832;28;19921;-64
2023/04/11 15:04:22;;;;;;;;;;;;;;;19.20;34.00;97867.59;4973854;28;20376;-62